Time;durP1;ratioP1;P1;durP2;ratioP2;P2;SDS_P1;SDS_P2;PMS_P1;PMS_P2;Temp;Humidity;BMP_temperature;BMP_pressure;BME280_temperature;BME280_humidity;BME280_pressure;Samples;Min_cycle;Max_cycle;Signal;HPM_P1;HPM_P2
2022/10/07 00:00:53;;;;;;;12.40;6.70;;;;;;;13.13;100.00;101172.71;1712931;82;21080;-67
2022/10/07 00:03:20;;;;;;;11.22;5.92;;;;;;;13.09;100.00;101171.53;1713029;83;21081;-68
2022/10/07 00:05:46;;;;;;;12.30;6.97;;;;;;;13.05;100.00;101173.42;1713176;83;21256;-67
2022/10/07 00:08:15;;;;;;;12.68;7.33;;;;;;;12.99;100.00;101172.28;1712698;82;21022;-67
2022/10/07 00:10:42;;;;;;;11.03;7.08;;;;;;;12.96;100.00;101176.34;1712890;82;21101;-67
2022/10/07 00:13:10;;;;;;;12.47;6.67;;;;;;;12.90;100.00;101175.20;1713173;83;21532;-67
2022/10/07 00:15:38;;;;;;;10.80;7.40;;;;;;;12.86;100.00;101173.55;1713044;83;21058;-67
2022/10/07 00:18:06;;;;;;;11.50;7.08;;;;;;;12.82;100.00;101178.55;1712878;82;21042;-67
2022/10/07 00:20:38;;;;;;;11.18;7.15;;;;;;;12.75;100.00;101177.39;1713037;83;21089;-66
2022/10/07 00:23:05;;;;;;;;;;;;;;;12.67;100.00;101178.06;1715423;83;21546;-67
2022/10/07 00:25:37;;;;;;;11.65;7.60;;;;;;;12.61;100.00;101180.90;1713282;83;20166;-66
2022/10/07 00:28:05;;;;;;;10.00;7.42;;;;;;;12.55;100.00;101182.38;1713046;82;21592;-66
2022/10/07 00:30:32;;;;;;;11.75;7.53;;;;;;;12.51;100.00;101187.34;1712949;83;21270;-67
2022/10/07 00:32:59;;;;;;;15.32;8.20;;;;;;;12.46;100.00;101194.07;1712670;83;21054;-66
2022/10/07 00:35:25;;;;;;;10.63;8.28;;;;;;;12.38;100.00;101191.66;1713039;82;21026;-68
2022/10/07 00:37:53;;;;;;;12.85;8.05;;;;;;;12.31;100.00;101191.41;1718610;82;21119;-66
2022/10/07 00:40:21;;;;;;;11.40;7.70;;;;;;;12.24;100.00;101189.85;1709865;83;21056;-67
2022/10/07 00:42:47;;;;;;;14.10;8.33;;;;;;;12.17;100.00;101194.42;1726054;83;21150;-68
2022/10/07 00:45:18;;;;;;;14.55;7.92;;;;;;;12.11;100.00;101199.00;1722330;83;21084;-67
2022/10/07 00:47:47;;;;;;;11.95;7.85;;;;;;;12.04;100.00;101202.71;1720462;83;21050;-66
2022/10/07 00:50:19;;;;;;;10.90;7.75;;;;;;;11.98;100.00;101200.22;1720652;83;21068;-67
2022/10/07 00:52:56;;;;;;;11.30;7.47;;;;;;;11.92;100.00;101207.39;1720211;83;21108;-67
2022/10/07 00:55:25;;;;;;;15.75;8.88;;;;;;;11.87;100.00;101211.93;1720438;83;22409;-69
2022/10/07 00:57:56;;;;;;;15.72;8.43;;;;;;;11.83;100.00;101212.87;1720507;83;21594;-67
2022/10/07 01:00:23;;;;;;;13.98;8.53;;;;;;;11.84;100.00;101213.27;1720995;83;21080;-66
2022/10/07 01:02:51;;;;;;;12.05;8.33;;;;;;;11.81;100.00;101214.68;1725617;83;21644;-68
2022/10/07 01:05:18;;;;;;;20.30;9.43;;;;;;;11.73;100.00;101221.48;1726088;82;21072;-67
2022/10/07 01:07:47;;;;;;;17.77;8.88;;;;;;;11.71;100.00;101221.07;1725959;83;21545;-66
2022/10/07 01:10:18;;;;;;;13.62;8.45;;;;;;;11.65;100.00;101223.87;1725763;82;21041;-67
2022/10/07 01:12:50;;;;;;;12.63;8.95;;;;;;;11.61;100.00;101220.44;1726173;82;21097;-66
2022/10/07 01:15:42;;;;;;;13.25;8.93;;;;;;;11.52;100.00;101229.42;1725871;82;21029;-67
2022/10/07 01:18:22;;;;;;;12.18;7.75;;;;;;;11.46;100.00;101225.63;1725885;83;21100;-66
2022/10/07 01:21:07;;;;;;;13.65;8.68;;;;;;;11.43;100.00;101224.36;1726056;82;21144;-66
2022/10/07 01:23:58;;;;;;;18.35;9.05;;;;;;;11.37;100.00;101232.44;1725929;83;21057;-69
2022/10/07 01:26:40;;;;;;;15.72;8.93;;;;;;;11.30;100.00;101233.48;1725801;82;21105;-67
2022/10/07 01:29:17;;;;;;;15.45;8.45;;;;;;;11.22;100.00;101237.59;1726022;82;21041;-65
2022/10/07 01:31:56;;;;;;;14.40;8.10;;;;;;;11.11;100.00;101240.91;1726034;82;21097;-67
2022/10/07 01:34:25;;;;;;;9.48;6.83;;;;;;;11.04;100.00;101245.47;1661229;86;21604;-68
2022/10/07 01:36:53;;;;;;;12.43;8.53;;;;;;;10.98;100.00;101252.17;1673436;85;21089;-69
2022/10/07 01:39:29;;;;;;;12.68;7.92;;;;;;;10.90;100.00;101258.04;1670644;85;21098;-69
2022/10/07 01:41:56;;;;;;;15.90;9.48;;;;;;;10.84;100.00;101260.82;1720579;83;21022;-69
2022/10/07 01:44:25;;;;;;;17.32;9.20;;;;;;;10.75;100.00;101253.09;1718794;83;21568;-68
2022/10/07 01:46:51;;;;;;;15.08;8.98;;;;;;;10.67;100.00;101251.48;1715263;83;21785;-68
2022/10/07 01:52:26;;;;;;;16.97;9.75;;;;;;;10.44;100.00;101258.93;1881969;75;28630;-68
2022/10/07 01:55:30;;;;;;;18.30;10.25;;;;;;;10.34;100.00;101257.37;1858458;77;21573;-68
2022/10/07 01:58:43;;;;;;;10.78;8.98;;;;;;;10.25;100.00;101259.23;1857619;77;21509;-68
2022/10/07 02:01:34;;;;;;;16.35;10.63;;;;;;;10.22;100.00;101256.66;1746673;80;21630;-68
2022/10/07 02:04:35;;;;;;;20.30;11.48;;;;;;;10.19;100.00;101251.88;1824628;78;21091;-67
2022/10/07 02:07:44;;;;;;;14.87;9.98;;;;;;;10.19;100.00;101267.26;1824424;78;21019;-66
2022/10/07 02:10:52;;;;;;;18.57;11.28;;;;;;;10.20;100.00;101272.07;1823834;78;21113;-65
2022/10/07 02:13:30;;;;;;;18.05;11.20;;;;;;;10.15;100.00;101272.14;1823222;78;21519;-67
2022/10/07 02:16:20;;;;;;;15.60;10.48;;;;;;;10.08;100.00;101274.47;1822896;78;21021;-66
2022/10/07 02:18:50;;;;;;;12.55;9.63;;;;;;;10.08;100.00;101279.73;1775195;78;21093;-66
2022/10/07 02:21:28;;;;;;;19.35;8.95;;;;;;;10.06;100.00;101286.33;1823059;78;21082;-66
2022/10/07 02:23:56;;;;;;;14.87;9.28;;;;;;;10.10;100.00;101293.73;1823412;78;21545;-66
2022/10/07 02:26:25;;;;;;;19.98;11.73;;;;;;;10.15;100.00;101288.39;1823123;78;21015;-66
2022/10/07 02:28:52;;;;;;;16.80;11.90;;;;;;;10.21;100.00;101294.39;1822984;78;21554;-67
2022/10/07 02:31:24;;;;;;;16.48;12.05;;;;;;;10.29;100.00;101299.59;1823199;78;21053;-66
2022/10/07 02:33:53;;;;;;;18.05;11.63;;;;;;;10.41;100.00;101298.05;1793669;78;21057;-67
2022/10/07 02:36:34;;;;;;;19.65;12.05;;;;;;;10.49;100.00;101299.25;1823239;78;21022;-66
2022/10/07 02:39:02;;;;;;;16.95;10.82;;;;;;;10.56;100.00;101306.14;1804160;78;21125;-66
2022/10/07 02:41:39;;;;;;;17.05;9.80;;;;;;;10.60;100.00;101307.80;1823281;78;21030;-67
2022/10/07 02:44:25;;;;;;;15.78;9.75;;;;;;;10.65;100.00;101309.92;1829974;77;21042;-66
2022/10/07 02:47:15;;;;;;;27.93;10.00;;;;;;;10.69;100.00;101312.89;1856888;77;21007;-67
2022/10/07 02:49:47;;;;;;;16.52;9.70;;;;;;;10.74;100.00;101319.84;1856319;77;21023;-67
2022/10/07 02:52:15;;;;;;;15.65;10.38;;;;;;;10.84;100.00;101317.48;1859561;77;21110;-66
2022/10/07 02:54:57;;;;;;;16.67;10.23;;;;;;;10.89;100.00;101319.56;1834207;77;21868;-68
2022/10/07 02:57:25;;;;;;;13.22;10.05;;;;;;;10.90;100.00;101322.61;1860239;77;21061;-67
2022/10/07 02:59:51;;;;;;;12.25;8.20;;;;;;;10.91;100.00;101333.59;1860464;77;20990;-66
2022/10/07 03:02:23;;;;;;;13.28;8.73;;;;;;;10.89;100.00;101331.42;1859701;77;21042;-66
2022/10/07 03:04:50;;;;;;;13.22;7.70;;;;;;;10.88;100.00;101333.20;1859384;77;21139;-66
2022/10/07 03:07:17;;;;;;;18.00;8.93;;;;;;;10.86;100.00;101332.81;1859246;77;21021;-66
2022/10/07 03:09:44;;;;;;;14.05;9.20;;;;;;;10.85;100.00;101328.42;1833554;77;20991;-67
2022/10/07 03:12:11;;;;;;;20.00;9.20;;;;;;;10.83;100.00;101328.90;1859396;77;21490;-67
2022/10/07 03:14:39;;;;;;;13.55;7.95;;;;;;;10.82;100.00;101337.26;1859126;77;21506;-66
2022/10/07 03:17:07;;;;;;;9.50;7.62;;;;;;;10.81;100.00;101334.64;1859400;77;21104;-66
2022/10/07 03:19:33;;;;;;;15.78;9.55;;;;;;;10.79;100.00;101336.44;1859197;77;21093;-67
2022/10/07 03:22:01;;;;;;;15.68;8.30;;;;;;;10.75;100.00;101344.00;1859388;77;21006;-66
2022/10/07 03:24:30;;;;;;;12.85;8.80;;;;;;;10.70;100.00;101346.27;1859589;77;20994;-67
2022/10/07 03:26:56;;;;;;;18.30;8.98;;;;;;;10.69;100.00;101344.51;1859550;77;21094;-66
2022/10/07 03:29:25;;;;;;;13.13;8.98;;;;;;;10.64;100.00;101346.81;1859295;77;21214;-67
2022/10/07 03:31:54;;;;;;;16.93;8.63;;;;;;;10.62;100.00;101349.92;1859439;77;20976;-66
2022/10/07 03:34:22;;;;;;;12.18;8.90;;;;;;;10.58;100.00;101350.87;1859512;77;21535;-67
2022/10/07 03:36:49;;;;;;;14.20;8.53;;;;;;;10.54;100.00;101356.66;1859562;77;21078;-66
2022/10/07 03:39:16;;;;;;;19.50;9.50;;;;;;;10.52;100.00;101350.55;1859223;77;21089;-67
2022/10/07 03:41:42;;;;;;;14.20;9.50;;;;;;;10.49;100.00;101349.29;1859858;77;21091;-68
2022/10/07 03:44:09;;;;;;;12.37;7.87;;;;;;;10.49;100.00;101350.16;1859229;77;21054;-66
2022/10/07 03:46:38;;;;;;;15.28;9.73;;;;;;;10.43;100.00;101353.33;1859612;77;21088;-66
2022/10/07 03:49:05;;;;;;;12.68;9.73;;;;;;;10.40;100.00;101352.05;1859232;77;21457;-67
2022/10/07 03:51:32;;;;;;;13.68;8.50;;;;;;;10.36;100.00;101353.02;1858041;77;21043;-67
2022/10/07 03:53:59;;;;;;;14.30;9.13;;;;;;;10.31;100.00;101354.83;1855990;77;21084;-67
2022/10/07 03:56:28;;;;;;;11.30;8.30;;;;;;;10.28;100.00;101359.28;1856036;77;21658;-68
2022/10/07 03:58:55;;;;;;;13.43;10.00;;;;;;;10.24;100.00;101364.13;1856200;77;21409;-67
2022/10/07 04:01:30;;;;;;;10.38;7.58;;;;;;;10.21;100.00;101365.48;1856289;77;21573;-68
2022/10/07 04:03:58;;;;;;;17.73;9.90;;;;;;;10.18;100.00;101372.12;1856353;77;21014;-66
2022/10/07 04:06:26;;;;;;;13.20;8.65;;;;;;;10.13;100.00;101374.41;1856116;77;21171;-67
2022/10/07 04:08:55;;;;;;;16.93;8.80;;;;;;;10.13;100.00;101371.78;1856009;77;21035;-67
2022/10/07 04:11:23;;;;;;;14.75;8.80;;;;;;;10.08;100.00;101374.48;1825655;77;21109;-69
2022/10/07 04:13:55;;;;;;;13.88;9.68;;;;;;;10.06;100.00;101376.27;1825029;77;80386;-87
2022/10/07 04:16:26;;;;;;;16.55;9.90;;;;;;;10.02;100.00;101378.51;1626242;87;21095;-90
2022/10/07 04:18:58;;;;;;;15.40;9.50;;;;;;;10.01;100.00;101383.37;1642171;87;21079;-88
2022/10/07 04:21:29;;;;;;;13.58;8.40;;;;;;;10.00;100.00;101378.98;1626009;87;21040;-88
2022/10/07 04:23:57;;;;;;;15.05;8.93;;;;;;;9.98;100.00;101386.02;1643068;87;21188;-89
2022/10/07 04:26:27;;;;;;;13.20;8.25;;;;;;;9.95;100.00;101383.44;1641878;87;21083;-89
2022/10/07 04:28:56;;;;;;;13.18;8.28;;;;;;;9.95;100.00;101386.08;1641790;87;21089;-90
2022/10/07 04:31:26;;;;;;;18.48;8.85;;;;;;;9.96;100.00;101387.80;1624959;87;21214;-90
2022/10/07 04:33:57;;;;;;;14.20;8.03;;;;;;;9.97;100.00;101390.42;1640644;87;21467;-89
2022/10/07 04:36:27;;;;;;;13.15;7.53;;;;;;;9.95;100.00;101388.70;1641931;85;20980;-89
2022/10/07 04:38:58;;;;;;;13.98;7.58;;;;;;;9.95;100.00;101388.25;1680625;82;80645;-68
2022/10/07 04:41:27;;;;;;;11.78;7.08;;;;;;;9.92;100.00;101399.28;1679301;85;21073;-66
2022/10/07 04:43:54;;;;;;;12.58;7.22;;;;;;;9.87;100.00;101400.22;1705468;83;21228;-68
2022/10/07 04:46:22;;;;;;;15.30;7.35;;;;;;;9.91;100.00;101395.76;1682462;84;21097;-66
2022/10/07 04:48:51;;;;;;;13.75;6.87;;;;;;;9.93;100.00;101403.64;1682457;85;21533;-68
2022/10/07 04:51:21;;;;;;;12.18;6.97;;;;;;;9.94;100.00;101402.73;1682545;84;21030;-67
2022/10/07 04:53:52;;;;;;;13.85;6.87;;;;;;;9.93;100.00;101407.59;1682808;85;21105;-68
2022/10/07 04:56:21;;;;;;;9.38;5.20;;;;;;;10.22;100.00;101411.98;1684799;84;21242;-67
2022/10/07 04:58:48;;;;;;;17.92;7.40;;;;;;;10.64;100.00;101412.22;1684334;84;21034;-66
2022/10/07 05:01:15;;;;;;;12.20;6.87;;;;;;;10.75;100.00;101419.95;1684328;85;21018;-66
2022/10/07 05:03:43;;;;;;;13.85;5.87;;;;;;;10.74;100.00;101418.66;1684617;85;21078;-69
2022/10/07 05:06:12;;;;;;;14.30;6.15;;;;;;;10.79;100.00;101420.75;1684388;84;21006;-68
2022/10/07 05:08:41;;;;;;;18.17;6.75;;;;;;;10.93;100.00;101420.09;1683904;85;21131;-69
2022/10/07 05:11:09;;;;;;;7.47;5.50;;;;;;;11.35;100.00;101421.49;1672109;85;21036;-70
2022/10/07 05:13:38;;;;;;;9.35;5.30;;;;;;;12.09;100.00;101422.61;1671972;85;21108;-67
2022/10/07 05:16:08;;;;;;;7.85;4.37;;;;;;;12.92;100.00;101423.23;1672233;85;21678;-68
2022/10/07 05:18:38;;;;;;;10.72;5.33;;;;;;;13.73;100.00;101422.77;1672458;85;21127;-68
2022/10/07 05:21:06;;;;;;;8.85;4.42;;;;;;;14.58;100.00;101415.73;1649457;85;21239;-69
2022/10/07 05:23:35;;;;;;;6.50;4.00;;;;;;;15.42;100.00;101420.76;1672208;85;21040;-68
2022/10/07 05:26:06;;;;;;;11.50;3.95;;;;;;;16.22;100.00;101425.72;1672486;85;21081;-68
2022/10/07 05:28:34;;;;;;;8.53;3.62;;;;;;;16.97;100.00;101423.94;1672433;85;21064;-68
2022/10/07 05:31:12;;;;;;;7.62;3.90;;;;;;;17.67;100.00;101426.19;1672542;85;21084;-69
2022/10/07 05:33:38;;;;;;;13.70;3.58;;;;;;;18.20;100.00;101425.04;1673380;85;21117;-69
2022/10/07 05:36:07;;;;;;;7.25;3.65;;;;;;;18.81;100.00;101433.16;1673365;85;21037;-68
2022/10/07 05:38:37;;;;;;;10.25;3.45;;;;;;;19.33;99.16;101436.77;1669664;85;21065;-68
2022/10/07 05:41:06;;;;;;;6.22;3.60;;;;;;;19.86;96.70;101447.24;1660723;86;21006;-67
2022/10/07 05:43:36;;;;;;;10.08;3.05;;;;;;;20.44;91.27;101437.74;1660538;86;21048;-68
2022/10/07 05:46:08;;;;;;;10.70;2.98;;;;;;;20.92;74.85;101436.33;1658975;86;22481;-69
2022/10/07 05:48:38;;;;;;;8.68;3.05;;;;;;;21.23;66.18;101442.51;1658475;86;21117;-68
2022/10/07 05:51:07;;;;;;;3.92;2.67;;;;;;;21.54;63.61;101444.20;1667260;86;21089;-69
2022/10/07 05:53:33;;;;;;;9.53;2.98;;;;;;;21.88;61.72;101440.27;1667310;86;21045;-68
2022/10/07 05:56:09;;;;;;;7.22;3.35;;;;;;;22.35;59.98;101444.88;1667200;85;21148;-68
2022/10/07 05:58:37;;;;;;;9.13;3.55;;;;;;;22.59;58.22;101441.92;1666837;86;21806;-68
2022/10/07 06:01:06;;;;;;;8.48;3.30;;;;;;;22.86;55.04;101448.21;1666964;85;21108;-68
2022/10/07 06:03:33;;;;;;;9.03;2.72;;;;;;;23.11;54.99;101450.97;1666592;85;21116;-67
2022/10/07 06:06:02;;;;;;;9.33;2.58;;;;;;;23.31;52.99;101447.40;1666626;85;21591;-69
2022/10/07 06:08:32;;;;;;;5.58;2.98;;;;;;;23.66;52.69;101451.13;1666885;86;21072;-69
2022/10/07 06:13:51;;;;;;;7.47;2.37;;;;;;;24.52;48.95;101452.62;1666620;85;21520;-70
2022/10/07 06:16:19;;;;;;;4.55;2.40;;;;;;;24.73;48.10;101450.98;1666902;85;21069;-68
2022/10/07 06:18:49;;;;;;;5.05;2.45;;;;;;;24.97;47.33;101452.80;1667081;85;21537;-69
2022/10/07 06:21:18;;;;;;;10.58;2.60;;;;;;;25.28;45.51;101454.88;1666925;85;21072;-68
2022/10/07 06:23:52;;;;;;;12.50;2.70;;;;;;;25.28;44.54;101456.23;1666709;86;21088;-69
2022/10/07 06:26:20;;;;;;;10.98;2.52;;;;;;;25.25;44.02;101455.09;1650764;86;21042;-70
2022/10/07 06:28:48;;;;;;;8.88;2.50;;;;;;;25.43;44.10;101458.69;1666635;85;21581;-70
2022/10/07 06:31:21;;;;;;;5.92;2.50;;;;;;;25.43;44.10;101458.69;1666447;86;21077;-68
2022/10/07 06:33:46;;;;;;;7.97;2.40;;;;;;;25.59;43.01;101465.94;1666680;85;21096;-68
2022/10/07 06:36:13;;;;;;;6.85;2.20;;;;;;;25.84;41.92;101466.68;1666662;86;21656;-68
2022/10/07 06:38:47;;;;;;;4.60;1.87;;;;;;;25.76;41.96;101469.97;1666616;85;21128;-68
2022/10/07 06:41:16;;;;;;;8.15;2.22;;;;;;;25.82;41.20;101468.64;1666890;86;21599;-69
2022/10/07 06:43:45;;;;;;;6.85;2.08;;;;;;;26.00;40.87;101469.89;1667647;84;21147;-69
2022/10/07 06:46:18;;;;;;;5.55;2.30;;;;;;;26.18;40.55;101463.95;1693859;84;21524;-69
2022/10/07 06:48:47;;;;;;;6.28;2.20;;;;;;;26.16;40.37;101463.59;1694950;84;22157;-68
2022/10/07 06:51:17;;;;;;;5.37;2.30;;;;;;;25.92;40.45;101458.84;1708195;84;21068;-69
2022/10/07 06:53:43;;;;;;;10.40;2.77;;;;;;;26.06;40.93;101469.36;1689755;84;21073;-70
2022/10/07 06:56:13;;;;;;;7.58;2.65;;;;;;;26.37;40.30;101469.56;1663592;84;21050;-69
2022/10/07 06:58:42;;;;;;;;;;;;;;;26.66;38.66;101474.41;1691867;84;21631;-69
2022/10/07 07:01:10;;;;;;;4.87;2.22;;;;;;;26.78;38.91;101474.25;1689346;84;21094;-69
2022/10/07 07:03:37;;;;;;;6.22;2.22;;;;;;;26.81;38.15;101473.13;1689155;84;21616;-68
2022/10/07 07:06:07;;;;;;;6.72;1.80;;;;;;;26.80;38.05;101474.09;1689445;84;21045;-68
2022/10/07 07:08:37;;;;;;;8.68;2.20;;;;;;;26.84;37.80;101470.15;1689222;84;21333;-69
2022/10/07 07:13:57;;;;;;;;;;;;;;;26.58;37.90;101478.61;1691701;84;21548;-70
2022/10/07 07:16:25;;;;;;;12.55;2.67;;;;;;;26.74;37.43;101475.48;1689468;84;20183;-69
2022/10/07 07:19:00;;;;;;;10.08;2.40;;;;;;;26.96;37.54;101466.42;1689208;84;21497;-69
2022/10/07 07:21:30;;;;;;;11.70;2.33;;;;;;;27.16;36.57;101471.95;1689319;84;21045;-69
2022/10/07 07:23:57;;;;;;;6.08;2.08;;;;;;;26.88;36.54;101471.61;1689377;84;21066;-68
2022/10/07 07:26:26;;;;;;;5.55;2.20;;;;;;;26.77;36.96;101470.31;1689205;84;22143;-70
2022/10/07 07:28:57;;;;;;;9.33;2.42;;;;;;;26.77;36.99;101463.05;1689253;84;21076;-69
2022/10/07 07:31:24;;;;;;;6.65;1.95;;;;;;;26.82;36.62;101464.02;1689725;84;21113;-68
2022/10/07 07:33:54;;;;;;;7.58;2.42;;;;;;;27.06;36.81;101460.23;1689193;84;21421;-69
2022/10/07 07:36:23;;;;;;;;;;;;;;;27.48;36.01;101460.22;1691763;84;21136;-69
2022/10/07 07:38:58;;;;;;;7.03;1.70;;;;;;;27.55;35.73;101453.28;1689006;84;21956;-68
2022/10/07 07:41:28;;;;;;;7.20;2.25;;;;;;;27.76;35.71;101450.02;1686667;85;21077;-69
2022/10/07 07:43:58;;;;;;;6.72;2.08;;;;;;;28.34;34.42;101447.13;1688078;84;21042;-69
2022/10/07 07:46:28;;;;;;;8.83;1.92;;;;;;;28.78;33.43;101455.73;1686836;85;21077;-69
2022/10/07 07:48:56;;;;;;;4.83;2.25;;;;;;;29.01;32.35;101444.96;1687064;85;21069;-71
2022/10/07 07:51:28;;;;;;;6.05;2.08;;;;;;;28.91;31.94;101442.74;1686720;85;21246;-70
2022/10/07 07:53:53;;;;;;;5.67;1.77;;;;;;;29.06;32.27;101445.88;1686718;85;21109;-69
2022/10/07 07:56:21;;;;;;;12.00;1.87;;;;;;;29.33;31.37;101447.83;1687057;85;21130;-69
2022/10/07 07:58:48;;;;;;;7.22;1.85;;;;;;;29.62;30.89;101446.88;1686760;84;21120;-68
2022/10/07 08:01:17;;;;;;;7.80;2.05;;;;;;;29.79;30.12;101443.39;1686755;85;21164;-69
2022/10/07 08:03:46;;;;;;;6.12;1.70;;;;;;;30.02;29.78;101441.62;1686828;85;21250;-68
2022/10/07 08:06:14;;;;;;;8.05;2.00;;;;;;;30.16;28.93;101439.78;1686770;85;21089;-69
2022/10/07 08:08:42;;;;;;;8.57;2.33;;;;;;;30.01;29.16;101444.01;1687523;85;21037;-68
2022/10/07 08:11:17;;;;;;;6.12;1.98;;;;;;;29.83;29.42;101442.09;1686715;85;21185;-68
2022/10/07 08:13:44;;;;;;;7.97;2.22;;;;;;;29.98;29.80;101448.36;1686922;85;21569;-67
2022/10/07 08:16:18;;;;;;;5.10;1.80;;;;;;;30.06;28.83;101443.04;1687132;84;25666;-69
2022/10/07 08:18:47;;;;;;;6.60;1.92;;;;;;;29.63;29.20;101444.50;1686787;85;21125;-70
2022/10/07 08:21:17;;;;;;;4.03;1.62;;;;;;;29.22;30.13;101445.31;1665060;85;21030;-70
2022/10/07 08:23:46;;;;;;;6.83;1.87;;;;;;;29.52;30.28;101444.69;1687263;85;21555;-69
2022/10/07 08:26:13;;;;;;;8.28;2.10;;;;;;;29.82;29.77;101440.39;1686867;85;21128;-70
2022/10/07 08:28:41;;;;;;;8.05;1.65;;;;;;;30.05;28.70;101445.42;1665149;85;21175;-68
2022/10/07 08:31:14;;;;;;;5.67;1.65;;;;;;;30.09;28.83;101441.37;1686731;85;21062;-70
2022/10/07 08:33:43;;;;;;;11.65;2.67;;;;;;;30.18;27.99;101448.60;1686754;85;21112;-69
2022/10/07 08:36:16;;;;;;;4.67;1.57;;;;;;;30.39;28.29;101447.49;1685866;85;21568;-70
2022/10/07 08:38:44;;;;;;;6.17;1.82;;;;;;;30.36;27.96;101445.09;1686016;85;21089;-68
2022/10/07 08:41:51;;;;;;;4.45;1.67;;;;;;;30.50;27.95;101451.34;1688901;84;21101;-68
2022/10/07 08:44:30;;;;;;;6.20;2.02;;;;;;;30.79;27.65;101444.31;1689035;84;21450;-69
2022/10/07 08:47:38;;;;;;;5.67;1.87;;;;;;;30.99;26.84;101444.14;1689640;84;21050;-71
2022/10/07 08:50:31;;;;;;;4.75;1.80;;;;;;;30.93;26.52;101444.28;1688848;84;22057;-70
2022/10/07 08:53:05;;;;;;;6.35;1.42;;;;;;;31.13;26.75;101449.03;1689515;84;21041;-69
2022/10/07 08:55:48;;;;;;;5.85;1.70;;;;;;;31.21;26.15;101442.78;1689399;84;21545;-69
2022/10/07 08:58:58;;;;;;;4.85;1.70;;;;;;;30.98;25.91;101437.86;1689170;84;21147;-68
2022/10/07 09:01:55;;;;;;;7.20;1.77;;;;;;;30.78;26.07;101442.59;1688951;84;21061;-68
2022/10/07 09:04:44;;;;;;;7.17;1.60;;;;;;;30.96;25.72;101446.67;1688864;84;21114;-70
2022/10/07 09:07:22;;;;;;;6.30;1.47;;;;;;;30.91;25.63;101444.44;1613571;84;26548;-69
2022/10/07 09:09:56;;;;;;;8.83;1.80;;;;;;;30.74;26.50;101440.70;1688949;84;22066;-69
2022/10/07 09:12:34;;;;;;;4.20;1.60;;;;;;;30.76;26.54;101427.44;1688922;84;21078;-69
2022/10/07 09:15:01;;;;;;;9.35;2.37;;;;;;;30.51;26.82;101438.13;1686332;84;21113;-69
2022/10/07 09:17:38;;;;;;;7.12;2.33;;;;;;;30.28;27.01;101433.14;1689057;84;21088;-69
2022/10/07 09:20:15;;;;;;;6.62;1.85;;;;;;;30.30;27.01;101429.77;1670787;84;21080;-70
2022/10/07 09:22:43;;;;;;;9.00;1.80;;;;;;;30.37;27.05;101431.84;1689353;84;21137;-68
2022/10/07 09:25:25;;;;;;;5.70;1.80;;;;;;;29.98;27.10;101422.56;1688901;84;21121;-68
2022/10/07 09:27:53;;;;;;;7.92;1.65;;;;;;;29.69;27.95;101426.30;1689236;84;21108;-69
2022/10/07 09:30:21;;;;;;;6.22;1.80;;;;;;;29.60;28.01;101424.45;1688968;84;21114;-70
2022/10/07 09:32:52;;;;;;;6.45;1.75;;;;;;;29.63;28.26;101424.15;1689367;84;21054;-69
2022/10/07 09:35:23;;;;;;;8.65;2.00;;;;;;;29.74;27.50;101425.86;1689148;84;21312;-70
2022/10/07 09:37:58;;;;;;;19.67;2.12;;;;;;;29.74;27.29;101425.86;1689425;84;21030;-70
2022/10/07 09:43:32;;;;;;;5.22;1.65;;;;;;;29.86;27.00;101429.59;1672437;85;21126;-69
2022/10/07 09:46:00;;;;;;;8.10;1.90;;;;;;;29.87;27.01;101425.85;1661035;85;21113;-69
2022/10/07 09:48:32;;;;;;;7.22;1.85;;;;;;;29.67;27.18;101425.56;1660560;86;21145;-70
2022/10/07 09:51:17;;;;;;;9.48;1.60;;;;;;;29.24;27.18;101424.29;1660565;86;21076;-69
2022/10/07 09:54:09;;;;;;;6.53;1.80;;;;;;;29.03;27.35;101417.20;1661000;86;21090;-69
2022/10/07 09:56:41;;;;;;;15.28;1.85;;;;;;;28.95;27.99;101418.41;1659860;86;21086;-68
2022/10/07 09:59:21;;;;;;;9.95;1.70;;;;;;;28.94;28.03;101415.36;1660960;86;21080;-69
2022/10/07 10:02:14;;;;;;;7.12;1.95;;;;;;;29.13;27.45;101419.06;1660780;86;21102;-68
2022/10/07 10:04:53;;;;;;;6.97;1.90;;;;;;;29.42;26.96;101407.59;1660644;86;21093;-70
2022/10/07 10:07:30;;;;;;;8.00;1.30;;;;;;;29.53;26.27;101412.50;1660614;85;21152;-68
2022/10/07 10:10:00;;;;;;;6.83;1.65;;;;;;;29.26;26.76;101414.15;1660627;86;21025;-69
2022/10/07 10:12:27;;;;;;;9.05;1.75;;;;;;;29.35;27.05;101413.27;1636692;86;21080;-70
2022/10/07 10:14:57;;;;;;;6.72;1.67;;;;;;;29.64;26.37;101403.65;1660799;86;21226;-70
2022/10/07 10:17:36;;;;;;;5.20;1.45;;;;;;;29.66;26.21;101400.80;1660854;86;21094;-66
2022/10/07 10:20:42;;;;;;;5.15;1.50;;;;;;;29.66;26.26;101400.28;1660831;86;21538;-70
2022/10/07 10:23:28;;;;;;;6.08;1.55;;;;;;;29.73;26.40;101400.58;1660917;85;21077;-69
2022/10/07 10:26:32;;;;;;;4.67;1.45;;;;;;;29.81;25.25;101401.16;1660718;86;21049;-70
2022/10/07 10:29:23;;;;;;;5.65;1.82;;;;;;;29.69;25.76;101401.88;1660796;86;21639;-70
2022/10/07 10:32:25;;;;;;;6.78;1.75;;;;;;;29.77;26.27;101392.48;1661189;86;21077;-70
2022/10/07 10:35:29;;;;;;;4.83;1.52;;;;;;;29.98;25.67;101381.83;1660976;86;21601;-70
2022/10/07 10:38:32;;;;;;;6.22;2.25;;;;;;;30.04;25.27;101379.86;1660751;86;21068;-69
2022/10/07 10:41:07;;;;;;;7.17;1.87;;;;;;;29.77;26.15;101385.70;1676077;84;21057;-70
2022/10/07 10:44:14;;;;;;;4.72;1.70;;;;;;;29.44;26.36;101377.09;1688512;84;21239;-69
2022/10/07 10:47:16;;;;;;;6.58;1.82;;;;;;;29.22;26.69;101374.78;1661383;86;21105;-70
2022/10/07 10:50:06;;;;;;;6.50;1.75;;;;;;;28.76;27.68;101373.70;1661451;86;21061;-69
2022/10/07 10:52:48;;;;;;;7.35;2.12;;;;;;;28.55;27.95;101372.04;1661646;85;21129;-70
2022/10/07 10:55:33;;;;;;;7.60;2.15;;;;;;;28.60;27.86;101378.38;1630697;86;21307;-70
2022/10/07 10:58:23;;;;;;;4.97;1.75;;;;;;;28.73;26.87;101371.28;1661678;85;22774;-68
2022/10/07 11:00:54;;;;;;;;;;;;;;;28.43;27.80;101375.84;1663996;85;21505;-72
2022/10/07 11:03:59;;;;;;;7.50;2.10;;;;;;;28.46;27.44;101370.16;1661820;86;20188;-71
2022/10/07 11:06:27;;;;;;;8.48;1.52;;;;;;;28.39;27.51;101373.05;1661541;86;21054;-70
2022/10/07 11:08:54;;;;;;;6.80;1.85;;;;;;;28.45;27.46;101359.80;1661584;86;21397;-69
2022/10/07 11:11:21;;;;;;;6.03;1.42;;;;;;;28.47;27.15;101363.76;1661587;86;21251;-70
2022/10/07 11:14:10;;;;;;;5.75;1.50;;;;;;;28.42;26.88;101369.57;1661513;86;21121;-69
2022/10/07 11:16:53;;;;;;;10.90;2.40;;;;;;;28.37;26.98;101369.66;1661590;85;21494;-69
2022/10/07 11:19:24;;;;;;;17.10;2.98;;;;;;;27.91;27.63;101365.27;1661787;85;21077;-69
2022/10/07 11:21:53;;;;;;;5.25;1.40;;;;;;;27.72;28.64;101367.41;1661698;86;21116;-69
2022/10/07 11:24:38;;;;;;;6.45;1.80;;;;;;;27.64;28.32;101360.46;1661485;86;21149;-69
2022/10/07 11:27:25;;;;;;;6.33;1.87;;;;;;;27.32;28.40;101368.24;1661098;86;21084;-69
2022/10/07 11:30:21;;;;;;;7.08;1.80;;;;;;;26.91;29.27;101361.88;1661450;86;21154;-69
2022/10/07 11:33:07;;;;;;;7.17;2.10;;;;;;;26.77;29.75;101356.81;1661393;86;21565;-70
2022/10/07 11:35:42;;;;;;;10.75;2.02;;;;;;;26.72;29.77;101355.01;1661358;86;21578;-68
2022/10/07 11:38:13;;;;;;;3.67;1.42;;;;;;;26.34;30.13;101350.98;1661424;86;21736;-66
2022/10/07 11:40:54;;;;;;;4.75;1.50;;;;;;;26.11;30.58;101353.80;1660639;86;21045;-67
2022/10/07 11:43:41;;;;;;;5.05;1.40;;;;;;;25.96;30.78;101353.70;1659184;86;21587;-66
2022/10/07 11:46:35;;;;;;;4.87;1.52;;;;;;;25.80;30.53;101352.73;1658875;86;21113;-66
2022/10/07 11:49:13;;;;;;;5.25;1.40;;;;;;;25.54;30.93;101361.61;1659262;86;21081;-67
2022/10/07 11:52:05;;;;;;;6.95;1.85;;;;;;;25.17;31.20;101356.89;1659254;85;22145;-66
2022/10/07 11:54:46;;;;;;;7.75;1.70;;;;;;;24.91;31.46;101355.77;1659004;85;21088;-67
2022/10/07 11:57:24;;;;;;;8.38;1.90;;;;;;;24.73;32.24;101349.97;1658750;86;21073;-66
2022/10/07 12:00:07;;;;;;;5.85;1.87;;;;;;;24.60;32.09;101345.19;1659002;85;21166;-66
2022/10/07 12:02:41;;;;;;;7.08;1.77;;;;;;;24.60;32.52;101347.88;1658793;85;21072;-66